sensor_id;sensor_type;location;lat;lon;timestamp;P1;durP1;ratioP1;P2;durP2;ratioP2
61756;SDS011;57225;61.460;24.060;2024-01-15T00:01:54;7.10;;;2.47;;
61756;SDS011;57225;61.460;24.060;2024-01-15T00:04:39;7.15;;;2.40;;
61756;SDS011;57225;61.460;24.060;2024-01-15T00:07:24;6.50;;;2.60;;
61756;SDS011;57225;61.460;24.060;2024-01-15T00:10:08;9.73;;;2.35;;
61756;SDS011;57225;61.460;24.060;2024-01-15T00:12:52;5.30;;;2.13;;
61756;SDS011;57225;61.460;24.060;2024-01-15T00:15:37;9.45;;;2.47;;
61756;SDS011;57225;61.460;24.060;2024-01-15T00:18:21;5.88;;;3.05;;
61756;SDS011;57225;61.460;24.060;2024-01-15T00:21:07;10.13;;;2.22;;
61756;SDS011;57225;61.460;24.060;2024-01-15T00:23:51;6.13;;;2.47;;
61756;SDS011;57225;61.460;24.060;2024-01-15T00:26:36;9.07;;;2.45;;
61756;SDS011;57225;61.460;24.060;2024-01-15T00:29:21;10.07;;;2.03;;
61756;SDS011;57225;61.460;24.060;2024-01-15T00:32:05;8.15;;;2.22;;
61756;SDS011;57225;61.460;24.060;2024-01-15T00:34:49;11.48;;;2.35;;
61756;SDS011;57225;61.460;24.060;2024-01-15T00:37:34;7.60;;;2.25;;
61756;SDS011;57225;61.460;24.060;2024-01-15T00:40:18;7.18;;;2.30;;
61756;SDS011;57225;61.460;24.060;2024-01-15T00:43:03;5.40;;;1.95;;
61756;SDS011;57225;61.460;24.060;2024-01-15T00:45:47;9.32;;;2.30;;
61756;SDS011;57225;61.460;24.060;2024-01-15T00:48:33;8.82;;;2.88;;
61756;SDS011;57225;61.460;24.060;2024-01-15T00:51:17;10.13;;;2.55;;
61756;SDS011;57225;61.460;24.060;2024-01-15T00:54:02;6.70;;;2.05;;
61756;SDS011;57225;61.460;24.060;2024-01-15T00:56:46;9.18;;;2.47;;
61756;SDS011;57225;61.460;24.060;2024-01-15T00:59:31;10.10;;;2.63;;
61756;SDS011;57225;61.460;24.060;2024-01-15T01:02:15;9.88;;;2.28;;
61756;SDS011;57225;61.460;24.060;2024-01-15T01:05:00;6.90;;;2.63;;
61756;SDS011;57225;61.460;24.060;2024-01-15T01:07:44;7.15;;;2.58;;
61756;SDS011;57225;61.460;24.060;2024-01-15T01:10:29;8.02;;;3.03;;
61756;SDS011;57225;61.460;24.060;2024-01-15T01:13:14;9.60;;;2.15;;
61756;SDS011;57225;61.460;24.060;2024-01-15T01:15:58;9.68;;;2.70;;
61756;SDS011;57225;61.460;24.060;2024-01-15T01:18:43;6.57;;;2.35;;
61756;SDS011;57225;61.460;24.060;2024-01-15T01:21:27;8.23;;;2.30;;
61756;SDS011;57225;61.460;24.060;2024-01-15T01:24:12;5.82;;;2.05;;
61756;SDS011;57225;61.460;24.060;2024-01-15T01:26:56;10.10;;;2.35;;
61756;SDS011;57225;61.460;24.060;2024-01-15T01:29:41;12.82;;;2.25;;
61756;SDS011;57225;61.460;24.060;2024-01-15T01:32:25;10.48;;;2.30;;
61756;SDS011;57225;61.460;24.060;2024-01-15T01:35:10;11.55;;;2.05;;
61756;SDS011;57225;61.460;24.060;2024-01-15T01:37:54;6.20;;;2.05;;
61756;SDS011;57225;61.460;24.060;2024-01-15T01:40:38;4.10;;;1.75;;
61756;SDS011;57225;61.460;24.060;2024-01-15T01:43:23;6.25;;;1.60;;
61756;SDS011;57225;61.460;24.060;2024-01-15T01:46:08;5.28;;;1.80;;
61756;SDS011;57225;61.460;24.060;2024-01-15T01:48:56;7.22;;;1.55;;
61756;SDS011;57225;61.460;24.060;2024-01-15T01:51:41;5.05;;;1.58;;
61756;SDS011;57225;61.460;24.060;2024-01-15T01:54:26;5.25;;;2.03;;
61756;SDS011;57225;61.460;24.060;2024-01-15T01:57:13;6.13;;;2.17;;
61756;SDS011;57225;61.460;24.060;2024-01-15T01:59:58;4.45;;;2.03;;
61756;SDS011;57225;61.460;24.060;2024-01-15T02:02:43;8.57;;;1.90;;
61756;SDS011;57225;61.460;24.060;2024-01-15T02:05:27;8.15;;;2.17;;
61756;SDS011;57225;61.460;24.060;2024-01-15T02:08:12;5.18;;;2.03;;
61756;SDS011;57225;61.460;24.060;2024-01-15T02:10:57;5.28;;;2.15;;
61756;SDS011;57225;61.460;24.060;2024-01-15T02:13:42;8.25;;;2.22;;
61756;SDS011;57225;61.460;24.060;2024-01-15T02:16:27;4.93;;;1.75;;
61756;SDS011;57225;61.460;24.060;2024-01-15T02:19:17;6.85;;;1.90;;
61756;SDS011;57225;61.460;24.060;2024-01-15T02:22:02;5.47;;;1.58;;
61756;SDS011;57225;61.460;24.060;2024-01-15T02:24:46;7.88;;;2.03;;
61756;SDS011;57225;61.460;24.060;2024-01-15T02:27:31;4.70;;;1.50;;
61756;SDS011;57225;61.460;24.060;2024-01-15T02:30:15;5.22;;;1.80;;
61756;SDS011;57225;61.460;24.060;2024-01-15T02:33:00;5.93;;;1.75;;
61756;SDS011;57225;61.460;24.060;2024-01-15T02:35:45;5.47;;;1.88;;
61756;SDS011;57225;61.460;24.060;2024-01-15T02:38:30;9.52;;;1.60;;
61756;SDS011;57225;61.460;24.060;2024-01-15T02:41:14;6.75;;;1.60;;
61756;SDS011;57225;61.460;24.060;2024-01-15T02:43:58;6.63;;;1.45;;
61756;SDS011;57225;61.460;24.060;2024-01-15T02:46:43;6.20;;;1.88;;
61756;SDS011;57225;61.460;24.060;2024-01-15T02:49:28;4.47;;;1.70;;
61756;SDS011;57225;61.460;24.060;2024-01-15T02:52:12;6.03;;;1.88;;
61756;SDS011;57225;61.460;24.060;2024-01-15T02:54:56;8.55;;;1.60;;
61756;SDS011;57225;61.460;24.060;2024-01-15T02:57:41;6.32;;;1.98;;
61756;SDS011;57225;61.460;24.060;2024-01-15T03:00:26;6.00;;;2.03;;
61756;SDS011;57225;61.460;24.060;2024-01-15T03:03:10;2.67;;;1.42;;
61756;SDS011;57225;61.460;24.060;2024-01-15T03:05:55;3.08;;;1.70;;
61756;SDS011;57225;61.460;24.060;2024-01-15T03:08:39;4.53;;;1.42;;
61756;SDS011;57225;61.460;24.060;2024-01-15T03:11:24;4.20;;;1.48;;
61756;SDS011;57225;61.460;24.060;2024-01-15T03:14:08;3.00;;;1.55;;
61756;SDS011;57225;61.460;24.060;2024-01-15T03:17:11;2.97;;;1.20;;
61756;SDS011;57225;61.460;24.060;2024-01-15T03:19:56;3.78;;;1.50;;
61756;SDS011;57225;61.460;24.060;2024-01-15T03:22:40;4.53;;;1.48;;
61756;SDS011;57225;61.460;24.060;2024-01-15T03:25:25;3.17;;;1.30;;
61756;SDS011;57225;61.460;24.060;2024-01-15T03:28:10;2.97;;;1.38;;
61756;SDS011;57225;61.460;24.060;2024-01-15T03:30:54;7.35;;;1.40;;
61756;SDS011;57225;61.460;24.060;2024-01-15T03:33:39;3.95;;;1.58;;
61756;SDS011;57225;61.460;24.060;2024-01-15T03:36:24;6.45;;;1.63;;
61756;SDS011;57225;61.460;24.060;2024-01-15T03:39:08;4.32;;;1.55;;
61756;SDS011;57225;61.460;24.060;2024-01-15T03:41:53;2.17;;;1.30;;
61756;SDS011;57225;61.460;24.060;2024-01-15T03:44:37;4.65;;;1.50;;
61756;SDS011;57225;61.460;24.060;2024-01-15T03:47:21;3.30;;;1.50;;
61756;SDS011;57225;61.460;24.060;2024-01-15T03:50:06;3.05;;;1.38;;
61756;SDS011;57225;61.460;24.060;2024-01-15T03:52:50;8.07;;;1.50;;
61756;SDS011;57225;61.460;24.060;2024-01-15T03:55:35;5.53;;;1.58;;
61756;SDS011;57225;61.460;24.060;2024-01-15T03:58:19;9.70;;;1.63;;
61756;SDS011;57225;61.460;24.060;2024-01-15T04:01:07;3.30;;;1.40;;
61756;SDS011;57225;61.460;24.060;2024-01-15T04:06:37;2.72;;;1.25;;
61756;SDS011;57225;61.460;24.060;2024-01-15T04:09:21;3.03;;;1.15;;
61756;SDS011;57225;61.460;24.060;2024-01-15T04:12:06;2.05;;;1.08;;
61756;SDS011;57225;61.460;24.060;2024-01-15T04:14:51;4.78;;;1.40;;
61756;SDS011;57225;61.460;24.060;2024-01-15T04:17:36;2.92;;;1.35;;
61756;SDS011;57225;61.460;24.060;2024-01-15T04:20:20;5.15;;;1.33;;
61756;SDS011;57225;61.460;24.060;2024-01-15T04:23:05;3.53;;;1.05;;
61756;SDS011;57225;61.460;24.060;2024-01-15T04:25:49;2.78;;;1.30;;
61756;SDS011;57225;61.460;24.060;2024-01-15T04:28:33;5.75;;;1.27;;
61756;SDS011;57225;61.460;24.060;2024-01-15T04:31:22;4.00;;;1.20;;
61756;SDS011;57225;61.460;24.060;2024-01-15T04:34:08;5.65;;;1.20;;
61756;SDS011;57225;61.460;24.060;2024-01-15T04:36:53;3.47;;;1.30;;
61756;SDS011;57225;61.460;24.060;2024-01-15T04:39:37;3.40;;;1.05;;
61756;SDS011;57225;61.460;24.060;2024-01-15T04:42:22;2.78;;;1.15;;
61756;SDS011;57225;61.460;24.060;2024-01-15T04:45:06;2.45;;;1.00;;
61756;SDS011;57225;61.460;24.060;2024-01-15T04:47:51;2.88;;;1.33;;
61756;SDS011;57225;61.460;24.060;2024-01-15T04:50:35;3.72;;;1.23;;
61756;SDS011;57225;61.460;24.060;2024-01-15T04:53:20;2.85;;;1.30;;
61756;SDS011;57225;61.460;24.060;2024-01-15T04:56:04;1.95;;;1.05;;
61756;SDS011;57225;61.460;24.060;2024-01-15T04:58:48;4.70;;;1.48;;
61756;SDS011;57225;61.460;24.060;2024-01-15T05:01:33;4.88;;;1.60;;
61756;SDS011;57225;61.460;24.060;2024-01-15T05:04:17;3.45;;;1.23;;
61756;SDS011;57225;61.460;24.060;2024-01-15T05:07:02;3.05;;;1.20;;
61756;SDS011;57225;61.460;24.060;2024-01-15T05:09:46;2.83;;;1.35;;
61756;SDS011;57225;61.460;24.060;2024-01-15T05:12:30;5.32;;;1.27;;
61756;SDS011;57225;61.460;24.060;2024-01-15T05:15:15;10.80;;;1.40;;
61756;SDS011;57225;61.460;24.060;2024-01-15T05:18:00;5.93;;;1.40;;
61756;SDS011;57225;61.460;24.060;2024-01-15T05:20:44;9.75;;;1.45;;
61756;SDS011;57225;61.460;24.060;2024-01-15T05:23:30;1.77;;;1.00;;
61756;SDS011;57225;61.460;24.060;2024-01-15T05:26:15;2.38;;;1.08;;
61756;SDS011;57225;61.460;24.060;2024-01-15T05:29:00;2.65;;;1.10;;
61756;SDS011;57225;61.460;24.060;2024-01-15T05:31:44;4.68;;;1.17;;
61756;SDS011;57225;61.460;24.060;2024-01-15T05:34:29;5.15;;;1.05;;
61756;SDS011;57225;61.460;24.060;2024-01-15T05:37:13;2.15;;;0.93;;
61756;SDS011;57225;61.460;24.060;2024-01-15T05:39:58;2.55;;;1.02;;
61756;SDS011;57225;61.460;24.060;2024-01-15T05:42:43;4.50;;;1.55;;
61756;SDS011;57225;61.460;24.060;2024-01-15T05:45:27;5.15;;;1.90;;
61756;SDS011;57225;61.460;24.060;2024-01-15T05:48:12;3.85;;;1.33;;
61756;SDS011;57225;61.460;24.060;2024-01-15T05:50:57;3.40;;;1.35;;
61756;SDS011;57225;61.460;24.060;2024-01-15T05:53:41;6.80;;;1.33;;
61756;SDS011;57225;61.460;24.060;2024-01-15T05:56:28;6.70;;;1.38;;
61756;SDS011;57225;61.460;24.060;2024-01-15T05:59:12;3.95;;;1.48;;
61756;SDS011;57225;61.460;24.060;2024-01-15T06:01:57;3.50;;;1.10;;
61756;SDS011;57225;61.460;24.060;2024-01-15T06:04:41;2.72;;;1.50;;
61756;SDS011;57225;61.460;24.060;2024-01-15T06:07:25;2.80;;;1.17;;
61756;SDS011;57225;61.460;24.060;2024-01-15T06:10:10;2.60;;;1.17;;
61756;SDS011;57225;61.460;24.060;2024-01-15T06:12:55;2.28;;;1.20;;
61756;SDS011;57225;61.460;24.060;2024-01-15T06:15:39;3.78;;;1.40;;
61756;SDS011;57225;61.460;24.060;2024-01-15T06:18:24;3.97;;;1.50;;
61756;SDS011;57225;61.460;24.060;2024-01-15T06:21:08;6.45;;;1.55;;
61756;SDS011;57225;61.460;24.060;2024-01-15T06:23:54;7.10;;;1.45;;
61756;SDS011;57225;61.460;24.060;2024-01-15T06:26:40;5.30;;;1.00;;
61756;SDS011;57225;61.460;24.060;2024-01-15T06:29:25;4.67;;;1.20;;
61756;SDS011;57225;61.460;24.060;2024-01-15T06:32:10;1.75;;;0.88;;
61756;SDS011;57225;61.460;24.060;2024-01-15T06:34:55;1.77;;;1.15;;
61756;SDS011;57225;61.460;24.060;2024-01-15T06:37:40;6.03;;;1.30;;
61756;SDS011;57225;61.460;24.060;2024-01-15T06:40:24;4.25;;;1.42;;
61756;SDS011;57225;61.460;24.060;2024-01-15T06:43:09;7.35;;;1.35;;
61756;SDS011;57225;61.460;24.060;2024-01-15T06:45:53;8.73;;;1.40;;
61756;SDS011;57225;61.460;24.060;2024-01-15T06:48:38;7.53;;;1.42;;
61756;SDS011;57225;61.460;24.060;2024-01-15T06:51:22;5.22;;;1.60;;
61756;SDS011;57225;61.460;24.060;2024-01-15T06:54:07;6.63;;;1.30;;
61756;SDS011;57225;61.460;24.060;2024-01-15T06:56:52;8.23;;;1.20;;
61756;SDS011;57225;61.460;24.060;2024-01-15T06:59:36;4.00;;;1.17;;
61756;SDS011;57225;61.460;24.060;2024-01-15T07:02:21;7.50;;;1.70;;
61756;SDS011;57225;61.460;24.060;2024-01-15T07:05:05;4.00;;;1.40;;
61756;SDS011;57225;61.460;24.060;2024-01-15T07:07:50;3.07;;;1.27;;
61756;SDS011;57225;61.460;24.060;2024-01-15T07:10:35;5.30;;;1.40;;
61756;SDS011;57225;61.460;24.060;2024-01-15T07:13:19;5.63;;;1.20;;
61756;SDS011;57225;61.460;24.060;2024-01-15T07:16:04;9.23;;;1.73;;
61756;SDS011;57225;61.460;24.060;2024-01-15T07:18:48;2.03;;;1.10;;
61756;SDS011;57225;61.460;24.060;2024-01-15T07:21:32;2.93;;;1.27;;
61756;SDS011;57225;61.460;24.060;2024-01-15T07:24:17;3.38;;;1.70;;
61756;SDS011;57225;61.460;24.060;2024-01-15T07:27:02;3.17;;;1.15;;
61756;SDS011;57225;61.460;24.060;2024-01-15T07:29:48;2.97;;;1.70;;
61756;SDS011;57225;61.460;24.060;2024-01-15T07:32:32;4.93;;;1.37;;
61756;SDS011;57225;61.460;24.060;2024-01-15T07:35:17;10.18;;;2.83;;
61756;SDS011;57225;61.460;24.060;2024-01-15T07:38:01;15.60;;;3.80;;
61756;SDS011;57225;61.460;24.060;2024-01-15T07:40:46;10.35;;;2.72;;
61756;SDS011;57225;61.460;24.060;2024-01-15T07:43:33;18.10;;;4.53;;
61756;SDS011;57225;61.460;24.060;2024-01-15T07:46:17;22.60;;;3.27;;
61756;SDS011;57225;61.460;24.060;2024-01-15T07:49:02;24.80;;;5.10;;
61756;SDS011;57225;61.460;24.060;2024-01-15T07:51:47;10.07;;;3.10;;
61756;SDS011;57225;61.460;24.060;2024-01-15T07:54:31;2.07;;;1.23;;
61756;SDS011;57225;61.460;24.060;2024-01-15T07:57:16;3.37;;;1.70;;
61756;SDS011;57225;61.460;24.060;2024-01-15T08:00:00;5.80;;;1.63;;
61756;SDS011;57225;61.460;24.060;2024-01-15T08:02:47;5.63;;;1.60;;
61756;SDS011;57225;61.460;24.060;2024-01-15T08:05:31;1.30;;;0.83;;
61756;SDS011;57225;61.460;24.060;2024-01-15T08:08:16;5.17;;;1.47;;
61756;SDS011;57225;61.460;24.060;2024-01-15T08:11:00;5.33;;;1.60;;
61756;SDS011;57225;61.460;24.060;2024-01-15T08:13:45;3.03;;;1.10;;
61756;SDS011;57225;61.460;24.060;2024-01-15T08:16:29;7.33;;;1.53;;
61756;SDS011;57225;61.460;24.060;2024-01-15T08:19:14;4.17;;;1.23;;
61756;SDS011;57225;61.460;24.060;2024-01-15T08:21:58;2.03;;;1.20;;
61756;SDS011;57225;61.460;24.060;2024-01-15T08:24:44;5.07;;;1.33;;
61756;SDS011;57225;61.460;24.060;2024-01-15T08:27:29;2.60;;;1.33;;
61756;SDS011;57225;61.460;24.060;2024-01-15T08:30:14;3.90;;;1.40;;
61756;SDS011;57225;61.460;24.060;2024-01-15T08:32:58;4.93;;;1.70;;
61756;SDS011;57225;61.460;24.060;2024-01-15T08:35:42;1.80;;;1.10;;
61756;SDS011;57225;61.460;24.060;2024-01-15T08:38:27;2.87;;;1.10;;
61756;SDS011;57225;61.460;24.060;2024-01-15T08:41:11;5.30;;;1.23;;
61756;SDS011;57225;61.460;24.060;2024-01-15T08:43:57;2.80;;;1.17;;
61756;SDS011;57225;61.460;24.060;2024-01-15T08:46:42;4.80;;;1.60;;
61756;SDS011;57225;61.460;24.060;2024-01-15T08:49:26;5.27;;;1.13;;
61756;SDS011;57225;61.460;24.060;2024-01-15T08:52:11;5.03;;;1.50;;
61756;SDS011;57225;61.460;24.060;2024-01-15T08:54:58;3.53;;;1.40;;
61756;SDS011;57225;61.460;24.060;2024-01-15T08:57:43;2.88;;;0.98;;
61756;SDS011;57225;61.460;24.060;2024-01-15T09:00:27;4.22;;;1.50;;
61756;SDS011;57225;61.460;24.060;2024-01-15T09:03:12;1.93;;;0.93;;
61756;SDS011;57225;61.460;24.060;2024-01-15T09:05:57;3.67;;;1.53;;
61756;SDS011;57225;61.460;24.060;2024-01-15T09:08:41;4.03;;;1.50;;
61756;SDS011;57225;61.460;24.060;2024-01-15T09:11:26;7.20;;;1.60;;
61756;SDS011;57225;61.460;24.060;2024-01-15T09:14:10;7.10;;;1.70;;
61756;SDS011;57225;61.460;24.060;2024-01-15T09:17:01;3.47;;;1.50;;
61756;SDS011;57225;61.460;24.060;2024-01-15T09:19:56;8.50;;;1.50;;
61756;SDS011;57225;61.460;24.060;2024-01-15T09:22:40;3.03;;;1.40;;
61756;SDS011;57225;61.460;24.060;2024-01-15T09:25:26;5.80;;;1.33;;
61756;SDS011;57225;61.460;24.060;2024-01-15T09:28:10;5.18;;;1.80;;
61756;SDS011;57225;61.460;24.060;2024-01-15T09:30:55;4.97;;;1.52;;
61756;SDS011;57225;61.460;24.060;2024-01-15T09:33:39;4.53;;;1.60;;
61756;SDS011;57225;61.460;24.060;2024-01-15T09:36:24;3.05;;;1.52;;
61756;SDS011;57225;61.460;24.060;2024-01-15T09:39:09;4.40;;;1.65;;
61756;SDS011;57225;61.460;24.060;2024-01-15T09:41:55;3.33;;;1.58;;
61756;SDS011;57225;61.460;24.060;2024-01-15T09:44:39;2.42;;;1.27;;
61756;SDS011;57225;61.460;24.060;2024-01-15T09:47:24;2.88;;;1.60;;
61756;SDS011;57225;61.460;24.060;2024-01-15T09:50:09;2.95;;;1.35;;
61756;SDS011;57225;61.460;24.060;2024-01-15T09:52:54;3.27;;;1.30;;
61756;SDS011;57225;61.460;24.060;2024-01-15T09:55:41;2.13;;;0.98;;
61756;SDS011;57225;61.460;24.060;2024-01-15T09:58:25;6.35;;;1.33;;
61756;SDS011;57225;61.460;24.060;2024-01-15T10:01:11;4.93;;;1.50;;
61756;SDS011;57225;61.460;24.060;2024-01-15T10:03:56;5.30;;;1.67;;
61756;SDS011;57225;61.460;24.060;2024-01-15T10:06:44;4.07;;;1.27;;
61756;SDS011;57225;61.460;24.060;2024-01-15T10:09:30;8.27;;;1.65;;
61756;SDS011;57225;61.460;24.060;2024-01-15T10:12:14;6.10;;;2.07;;
61756;SDS011;57225;61.460;24.060;2024-01-15T10:14:59;4.20;;;1.93;;
61756;SDS011;57225;61.460;24.060;2024-01-15T10:17:43;7.67;;;1.33;;
61756;SDS011;57225;61.460;24.060;2024-01-15T10:20:28;8.03;;;1.90;;
61756;SDS011;57225;61.460;24.060;2024-01-15T10:23:12;3.97;;;1.83;;
61756;SDS011;57225;61.460;24.060;2024-01-15T10:25:58;6.13;;;1.60;;
61756;SDS011;57225;61.460;24.060;2024-01-15T10:28:44;7.90;;;1.90;;
61756;SDS011;57225;61.460;24.060;2024-01-15T10:31:28;3.40;;;1.55;;
61756;SDS011;57225;61.460;24.060;2024-01-15T10:34:13;21.90;;;1.85;;
61756;SDS011;57225;61.460;24.060;2024-01-15T10:36:59;10.73;;;1.90;;
61756;SDS011;57225;61.460;24.060;2024-01-15T10:39:46;6.78;;;1.77;;
61756;SDS011;57225;61.460;24.060;2024-01-15T10:42:31;6.63;;;1.33;;
61756;SDS011;57225;61.460;24.060;2024-01-15T10:45:15;4.60;;;1.48;;
61756;SDS011;57225;61.460;24.060;2024-01-15T10:48:00;2.85;;;1.13;;
61756;SDS011;57225;61.460;24.060;2024-01-15T10:50:46;3.65;;;1.35;;
61756;SDS011;57225;61.460;24.060;2024-01-15T10:53:31;3.28;;;1.60;;
61756;SDS011;57225;61.460;24.060;2024-01-15T10:56:17;4.50;;;1.90;;
61756;SDS011;57225;61.460;24.060;2024-01-15T10:59:02;2.63;;;1.25;;
61756;SDS011;57225;61.460;24.060;2024-01-15T11:01:48;9.02;;;1.70;;
61756;SDS011;57225;61.460;24.060;2024-01-15T11:04:33;4.90;;;1.60;;
61756;SDS011;57225;61.460;24.060;2024-01-15T11:07:21;3.28;;;1.08;;
61756;SDS011;57225;61.460;24.060;2024-01-15T11:10:07;9.63;;;1.50;;
61756;SDS011;57225;61.460;24.060;2024-01-15T11:12:53;5.10;;;1.55;;
61756;SDS011;57225;61.460;24.060;2024-01-15T11:15:54;8.35;;;1.70;;
61756;SDS011;57225;61.460;24.060;2024-01-15T11:21:42;5.53;;;2.00;;
61756;SDS011;57225;61.460;24.060;2024-01-15T11:24:33;3.73;;;1.50;;
61756;SDS011;57225;61.460;24.060;2024-01-15T11:30:39;10.02;;;1.70;;
61756;SDS011;57225;61.460;24.060;2024-01-15T11:33:32;8.07;;;1.67;;
61756;SDS011;57225;61.460;24.060;2024-01-15T11:36:17;4.30;;;1.60;;
61756;SDS011;57225;61.460;24.060;2024-01-15T11:39:19;8.47;;;1.90;;
61756;SDS011;57225;61.460;24.060;2024-01-15T11:42:11;4.53;;;1.67;;
61756;SDS011;57225;61.460;24.060;2024-01-15T11:44:57;7.80;;;1.30;;
61756;SDS011;57225;61.460;24.060;2024-01-15T11:48:00;5.07;;;1.47;;
61756;SDS011;57225;61.460;24.060;2024-01-15T11:51:03;5.60;;;1.70;;
61756;SDS011;57225;61.460;24.060;2024-01-15T11:53:48;3.00;;;1.50;;
61756;SDS011;57225;61.460;24.060;2024-01-15T11:56:38;1.90;;;1.25;;
61756;SDS011;57225;61.460;24.060;2024-01-15T11:59:23;6.17;;;1.83;;
61756;SDS011;57225;61.460;24.060;2024-01-15T12:02:07;7.80;;;1.70;;
61756;SDS011;57225;61.460;24.060;2024-01-15T12:04:51;8.87;;;1.73;;
61756;SDS011;57225;61.460;24.060;2024-01-15T12:07:36;7.65;;;2.10;;
61756;SDS011;57225;61.460;24.060;2024-01-15T12:10:20;6.27;;;2.30;;
61756;SDS011;57225;61.460;24.060;2024-01-15T12:15:56;4.17;;;1.70;;
61756;SDS011;57225;61.460;24.060;2024-01-15T12:18:41;6.23;;;1.60;;
61756;SDS011;57225;61.460;24.060;2024-01-15T12:21:28;8.40;;;2.17;;
61756;SDS011;57225;61.460;24.060;2024-01-15T12:24:13;6.70;;;1.75;;
61756;SDS011;57225;61.460;24.060;2024-01-15T12:26:57;3.90;;;1.48;;
61756;SDS011;57225;61.460;24.060;2024-01-15T12:29:42;2.70;;;1.38;;
61756;SDS011;57225;61.460;24.060;2024-01-15T12:32:26;8.07;;;1.92;;
61756;SDS011;57225;61.460;24.060;2024-01-15T12:35:11;4.70;;;1.80;;
61756;SDS011;57225;61.460;24.060;2024-01-15T12:37:55;8.52;;;2.20;;
61756;SDS011;57225;61.460;24.060;2024-01-15T12:40:40;5.07;;;2.25;;
61756;SDS011;57225;61.460;24.060;2024-01-15T12:43:30;8.70;;;2.33;;
61756;SDS011;57225;61.460;24.060;2024-01-15T12:46:14;5.13;;;2.25;;
61756;SDS011;57225;61.460;24.060;2024-01-15T12:48:59;8.75;;;1.90;;
61756;SDS011;57225;61.460;24.060;2024-01-15T12:51:43;4.07;;;1.97;;
61756;SDS011;57225;61.460;24.060;2024-01-15T12:54:36;6.43;;;1.90;;
61756;SDS011;57225;61.460;24.060;2024-01-15T12:57:21;8.83;;;2.40;;
61756;SDS011;57225;61.460;24.060;2024-01-15T13:00:06;7.20;;;2.00;;
61756;SDS011;57225;61.460;24.060;2024-01-15T13:02:54;9.25;;;1.83;;
61756;SDS011;57225;61.460;24.060;2024-01-15T13:05:41;8.45;;;2.72;;
61756;SDS011;57225;61.460;24.060;2024-01-15T13:08:25;8.30;;;2.00;;
61756;SDS011;57225;61.460;24.060;2024-01-15T13:11:12;5.70;;;1.80;;
61756;SDS011;57225;61.460;24.060;2024-01-15T13:13:57;7.05;;;2.78;;
61756;SDS011;57225;61.460;24.060;2024-01-15T13:16:42;10.43;;;2.30;;
61756;SDS011;57225;61.460;24.060;2024-01-15T13:19:58;7.00;;;2.40;;
61756;SDS011;57225;61.460;24.060;2024-01-15T13:22:43;8.88;;;2.17;;
61756;SDS011;57225;61.460;24.060;2024-01-15T13:25:27;6.10;;;2.10;;
61756;SDS011;57225;61.460;24.060;2024-01-15T13:28:12;7.47;;;1.98;;
61756;SDS011;57225;61.460;24.060;2024-01-15T13:30:57;6.13;;;2.60;;
61756;SDS011;57225;61.460;24.060;2024-01-15T13:33:41;7.47;;;2.15;;
61756;SDS011;57225;61.460;24.060;2024-01-15T13:36:26;7.47;;;2.28;;
61756;SDS011;57225;61.460;24.060;2024-01-15T13:39:11;8.35;;;2.42;;
61756;SDS011;57225;61.460;24.060;2024-01-15T13:41:55;14.80;;;2.53;;
61756;SDS011;57225;61.460;24.060;2024-01-15T13:44:40;9.63;;;2.37;;
61756;SDS011;57225;61.460;24.060;2024-01-15T13:47:24;6.60;;;2.50;;
61756;SDS011;57225;61.460;24.060;2024-01-15T13:50:09;7.28;;;2.30;;
61756;SDS011;57225;61.460;24.060;2024-01-15T13:52:54;5.30;;;2.30;;
61756;SDS011;57225;61.460;24.060;2024-01-15T13:55:38;7.37;;;2.47;;
61756;SDS011;57225;61.460;24.060;2024-01-15T13:58:23;6.87;;;2.10;;
61756;SDS011;57225;61.460;24.060;2024-01-15T14:01:09;6.40;;;2.00;;
61756;SDS011;57225;61.460;24.060;2024-01-15T14:03:54;6.53;;;2.30;;
61756;SDS011;57225;61.460;24.060;2024-01-15T14:06:39;6.67;;;2.07;;
61756;SDS011;57225;61.460;24.060;2024-01-15T14:09:23;6.60;;;2.60;;
61756;SDS011;57225;61.460;24.060;2024-01-15T14:12:09;8.48;;;2.63;;
61756;SDS011;57225;61.460;24.060;2024-01-15T14:14:53;7.67;;;2.60;;
61756;SDS011;57225;61.460;24.060;2024-01-15T14:17:38;4.88;;;1.77;;
61756;SDS011;57225;61.460;24.060;2024-01-15T14:20:22;8.40;;;2.33;;
61756;SDS011;57225;61.460;24.060;2024-01-15T14:23:07;5.60;;;2.37;;
61756;SDS011;57225;61.460;24.060;2024-01-15T14:25:51;8.52;;;2.85;;
61756;SDS011;57225;61.460;24.060;2024-01-15T14:28:36;14.30;;;3.23;;
61756;SDS011;57225;61.460;24.060;2024-01-15T14:31:20;9.48;;;3.30;;
61756;SDS011;57225;61.460;24.060;2024-01-15T14:34:05;13.05;;;2.80;;
61756;SDS011;57225;61.460;24.060;2024-01-15T14:36:51;10.18;;;2.67;;
61756;SDS011;57225;61.460;24.060;2024-01-15T14:39:38;8.60;;;3.42;;
61756;SDS011;57225;61.460;24.060;2024-01-15T14:42:23;5.37;;;2.67;;
61756;SDS011;57225;61.460;24.060;2024-01-15T14:45:08;9.33;;;3.50;;
61756;SDS011;57225;61.460;24.060;2024-01-15T14:47:55;8.73;;;2.70;;
61756;SDS011;57225;61.460;24.060;2024-01-15T14:50:40;13.38;;;3.05;;
61756;SDS011;57225;61.460;24.060;2024-01-15T14:53:25;9.17;;;2.57;;
61756;SDS011;57225;61.460;24.060;2024-01-15T14:56:09;9.57;;;2.53;;
61756;SDS011;57225;61.460;24.060;2024-01-15T14:58:54;12.93;;;2.78;;
61756;SDS011;57225;61.460;24.060;2024-01-15T15:01:38;12.75;;;2.80;;
61756;SDS011;57225;61.460;24.060;2024-01-15T15:04:23;8.27;;;2.25;;
61756;SDS011;57225;61.460;24.060;2024-01-15T15:07:08;5.27;;;1.97;;
61756;SDS011;57225;61.460;24.060;2024-01-15T15:09:54;6.07;;;2.33;;
61756;SDS011;57225;61.460;24.060;2024-01-15T15:12:38;5.32;;;1.77;;
61756;SDS011;57225;61.460;24.060;2024-01-15T15:15:23;7.43;;;2.60;;
61756;SDS011;57225;61.460;24.060;2024-01-15T15:18:07;5.93;;;1.87;;
61756;SDS011;57225;61.460;24.060;2024-01-15T15:20:52;11.50;;;2.90;;
61756;SDS011;57225;61.460;24.060;2024-01-15T15:23:36;12.35;;;2.28;;
61756;SDS011;57225;61.460;24.060;2024-01-15T15:26:22;14.02;;;2.40;;
61756;SDS011;57225;61.460;24.060;2024-01-15T15:29:07;5.93;;;1.88;;
61756;SDS011;57225;61.460;24.060;2024-01-15T15:31:51;5.97;;;2.70;;
61756;SDS011;57225;61.460;24.060;2024-01-15T15:34:36;14.68;;;3.42;;
61756;SDS011;57225;61.460;24.060;2024-01-15T15:37:20;6.43;;;1.93;;
61756;SDS011;57225;61.460;24.060;2024-01-15T15:40:05;6.73;;;1.93;;
61756;SDS011;57225;61.460;24.060;2024-01-15T15:42:52;8.18;;;2.38;;
61756;SDS011;57225;61.460;24.060;2024-01-15T15:45:37;9.50;;;2.20;;
61756;SDS011;57225;61.460;24.060;2024-01-15T15:48:21;6.05;;;2.50;;
61756;SDS011;57225;61.460;24.060;2024-01-15T15:51:05;10.97;;;2.77;;
61756;SDS011;57225;61.460;24.060;2024-01-15T15:53:50;4.97;;;2.00;;
61756;SDS011;57225;61.460;24.060;2024-01-15T15:56:35;12.07;;;2.33;;
61756;SDS011;57225;61.460;24.060;2024-01-15T15:59:22;8.20;;;2.33;;
61756;SDS011;57225;61.460;24.060;2024-01-15T16:02:07;7.10;;;2.60;;
61756;SDS011;57225;61.460;24.060;2024-01-15T16:04:52;7.07;;;2.87;;
61756;SDS011;57225;61.460;24.060;2024-01-15T16:07:36;5.90;;;2.57;;
61756;SDS011;57225;61.460;24.060;2024-01-15T16:10:21;7.30;;;2.20;;
61756;SDS011;57225;61.460;24.060;2024-01-15T16:13:05;8.87;;;2.20;;
61756;SDS011;57225;61.460;24.060;2024-01-15T16:15:50;9.33;;;2.33;;
61756;SDS011;57225;61.460;24.060;2024-01-15T16:18:34;10.03;;;2.33;;
61756;SDS011;57225;61.460;24.060;2024-01-15T16:21:19;8.43;;;2.63;;
61756;SDS011;57225;61.460;24.060;2024-01-15T16:24:03;8.03;;;2.57;;
61756;SDS011;57225;61.460;24.060;2024-01-15T16:26:47;5.67;;;2.17;;
61756;SDS011;57225;61.460;24.060;2024-01-15T16:29:32;9.73;;;1.87;;
61756;SDS011;57225;61.460;24.060;2024-01-15T16:32:16;7.30;;;2.17;;